createdAt,value
2019-01-26T00:00:11.006Z,962.59
2019-01-26T00:01:10.998Z,962.58
2019-01-26T00:02:11.037Z,962.54
2019-01-26T00:03:10.991Z,962.54
2019-01-26T00:04:10.963Z,962.55
2019-01-26T00:05:10.946Z,962.51
2019-01-26T00:06:10.957Z,962.52
2019-01-26T00:07:10.929Z,962.51
2019-01-26T00:08:10.920Z,962.51
2019-01-26T00:09:10.968Z,962.51
2019-01-26T00:10:10.892Z,962.51
2019-01-26T00:11:10.903Z,962.49
2019-01-26T00:12:10.870Z,962.47
2019-01-26T00:13:10.862Z,962.45
2019-01-26T00:14:10.878Z,962.44
2019-01-26T00:15:10.908Z,962.44
2019-01-26T00:16:10.827Z,962.47
2019-01-26T00:17:10.858Z,962.43
2019-01-26T00:18:10.825Z,962.44
2019-01-26T00:19:10.795Z,962.47
2019-01-26T00:20:10.799Z,962.46
2019-01-26T00:21:10.791Z,962.47
2019-01-26T00:22:10.813Z,962.47
2019-01-26T00:23:10.782Z,962.43
2019-01-26T00:24:10.759Z,962.50
2019-01-26T00:25:10.728Z,962.47
2019-01-26T00:26:10.719Z,962.48
2019-01-26T00:27:10.740Z,962.51
2019-01-26T00:28:10.694Z,962.51
2019-01-26T00:29:10.715Z,962.43
2019-01-26T00:30:10.678Z,962.48
2019-01-26T00:31:10.672Z,962.54
2019-01-26T00:32:10.658Z,962.54
2019-01-26T00:33:10.686Z,962.46
2019-01-26T00:34:10.638Z,962.57
2019-01-26T00:35:10.623Z,962.53
2019-01-26T00:36:10.611Z,962.52
2019-01-26T00:37:10.597Z,962.47
2019-01-26T00:38:10.601Z,962.50
2019-01-26T00:39:10.610Z,962.45
2019-01-26T00:40:10.566Z,962.47
2019-01-26T00:41:10.563Z,962.47
2019-01-26T00:42:10.562Z,962.46
2019-01-26T00:43:10.554Z,962.42
2019-01-26T00:44:10.524Z,962.38
2019-01-26T00:45:10.540Z,962.39
2019-01-26T00:46:10.569Z,962.44
2019-01-26T00:47:10.496Z,962.30
2019-01-26T00:48:10.477Z,962.34
2019-01-26T00:49:10.477Z,962.41
2019-01-26T00:50:10.451Z,962.35
2019-01-26T00:51:10.458Z,962.32
2019-01-26T00:52:10.444Z,962.39
2019-01-26T00:53:10.459Z,962.29
2019-01-26T00:54:10.417Z,962.29
2019-01-26T00:55:10.410Z,962.30
2019-01-26T00:56:10.616Z,962.15
2019-01-26T00:57:10.389Z,962.22
2019-01-26T00:58:10.366Z,962.18
2019-01-26T00:59:10.415Z,962.22
2019-01-26T01:00:10.354Z,962.23
2019-01-26T01:01:10.333Z,962.23
2019-01-26T01:02:10.390Z,962.19
2019-01-26T01:03:10.316Z,962.21
2019-01-26T01:04:10.304Z,962.20
2019-01-26T01:05:10.292Z,962.16
2019-01-26T01:06:10.303Z,962.17
2019-01-26T01:07:10.307Z,962.07
2019-01-26T01:08:10.262Z,962.07
2019-01-26T01:09:10.298Z,962.10
2019-01-26T01:10:10.231Z,962.09
2019-01-26T01:11:10.232Z,962.05
2019-01-26T01:12:10.216Z,962.05
2019-01-26T01:13:10.221Z,962.05
2019-01-26T01:14:10.207Z,962.03
2019-01-26T01:15:10.187Z,962.01
2019-01-26T01:16:10.194Z,962.05
2019-01-26T01:17:10.159Z,962.03
2019-01-26T01:18:10.155Z,962.05
2019-01-26T01:19:10.147Z,962.05
2019-01-26T01:20:10.127Z,962.04
2019-01-26T01:21:10.121Z,962.07
2019-01-26T01:22:10.119Z,962.08
2019-01-26T01:23:10.149Z,962.06
2019-01-26T01:24:10.089Z,962.10
2019-01-26T01:25:10.083Z,962.07
2019-01-26T01:26:10.077Z,962.04
2019-01-26T01:27:10.061Z,962.08
2019-01-26T01:28:10.063Z,962.03
2019-01-26T01:29:10.029Z,962.04
2019-01-26T01:30:10.018Z,961.99
2019-01-26T01:31:10.014Z,962.01
2019-01-26T01:32:10.004Z,961.97
2019-01-26T01:33:10.069Z,961.92
2019-01-26T01:34:09.980Z,961.92
2019-01-26T01:35:09.969Z,961.83
2019-01-26T01:36:09.965Z,961.85
2019-01-26T01:37:09.945Z,961.88
2019-01-26T01:38:09.941Z,961.78
2019-01-26T01:39:09.974Z,961.79
2019-01-26T01:40:09.914Z,961.84
2019-01-26T01:41:09.907Z,961.86
2019-01-26T01:42:09.891Z,961.79
2019-01-26T01:43:09.878Z,961.77
2019-01-26T01:44:09.883Z,961.84
2019-01-26T01:45:09.850Z,961.82
2019-01-26T01:46:09.915Z,961.86
2019-01-26T01:47:09.832Z,961.90
2019-01-26T01:48:09.839Z,961.78
2019-01-26T01:49:09.812Z,961.73
2019-01-26T01:50:09.803Z,961.76
2019-01-26T01:51:09.793Z,961.73
2019-01-26T01:52:09.806Z,961.69
2019-01-26T01:53:09.772Z,961.65
2019-01-26T01:54:09.769Z,961.61
2019-01-26T01:55:09.753Z,961.63
2019-01-26T01:56:09.747Z,961.66
2019-01-26T01:57:09.734Z,961.61
2019-01-26T01:58:09.750Z,961.57
2019-01-26T01:59:09.702Z,961.58
2019-01-26T02:00:09.703Z,961.60
2019-01-26T02:01:09.685Z,961.52
2019-01-26T02:02:09.670Z,961.52
2019-01-26T02:03:09.666Z,961.56
2019-01-26T02:04:09.647Z,961.56
2019-01-26T02:05:09.690Z,961.54
2019-01-26T02:06:09.637Z,961.53
2019-01-26T02:07:09.613Z,961.47
2019-01-26T02:08:10.461Z,961.42
2019-01-26T02:09:09.591Z,961.31
2019-01-26T02:10:09.615Z,961.25
2019-01-26T02:11:09.599Z,961.27
2019-01-26T02:12:09.559Z,961.21
2019-01-26T02:13:09.549Z,961.21
2019-01-26T02:14:09.545Z,961.11
2019-01-26T02:15:09.526Z,961.08
2019-01-26T02:16:09.543Z,961.02
2019-01-26T02:17:09.516Z,960.99
2019-01-26T02:18:09.535Z,961.06
2019-01-26T02:19:09.497Z,961.10
2019-01-26T02:20:09.473Z,961.07
2019-01-26T02:21:09.475Z,961.12
2019-01-26T02:22:09.457Z,961.10
2019-01-26T02:23:09.447Z,961.10
2019-01-26T02:24:09.431Z,961.15
2019-01-26T02:25:09.464Z,961.11
2019-01-26T02:26:09.418Z,961.08
2019-01-26T02:27:09.405Z,961.10
2019-01-26T02:28:09.385Z,961.12
2019-01-26T02:29:09.378Z,961.09
2019-01-26T02:30:09.362Z,961.10
2019-01-26T02:31:09.404Z,961.02
2019-01-26T02:32:09.359Z,960.95
2019-01-26T02:33:09.334Z,961.02
2019-01-26T02:34:09.322Z,960.90
2019-01-26T02:35:09.311Z,960.94
2019-01-26T02:36:09.298Z,960.99
2019-01-26T02:37:09.344Z,960.93
2019-01-26T02:38:09.284Z,960.95
2019-01-26T02:39:09.272Z,960.91
2019-01-26T02:40:09.271Z,960.82
2019-01-26T02:41:09.268Z,960.84
2019-01-26T02:42:09.253Z,960.86
2019-01-26T02:43:09.231Z,960.81
2019-01-26T02:44:09.207Z,960.87
2019-01-26T02:45:09.246Z,960.83
2019-01-26T02:46:09.208Z,960.78
2019-01-26T02:47:09.197Z,960.78
2019-01-26T02:48:09.188Z,960.74
2019-01-26T02:49:09.199Z,960.78
2019-01-26T02:50:09.159Z,960.77
2019-01-26T02:51:09.133Z,960.75
2019-01-26T02:52:09.188Z,960.70
2019-01-26T02:53:09.173Z,960.71
2019-01-26T02:54:09.121Z,960.73
2019-01-26T02:55:09.093Z,960.76
2019-01-26T02:56:09.076Z,960.79
2019-01-26T02:57:09.068Z,960.74
2019-01-26T02:58:09.088Z,960.84
2019-01-26T02:59:09.054Z,960.82
2019-01-26T03:00:09.044Z,960.76
2019-01-26T03:01:09.021Z,960.77
2019-01-26T03:02:09.012Z,960.85
2019-01-26T03:03:09.000Z,960.84
2019-01-26T03:04:09.053Z,960.80
2019-01-26T03:05:08.982Z,960.75
2019-01-26T03:06:08.971Z,960.77
2019-01-26T03:07:08.963Z,960.74
2019-01-26T03:08:08.963Z,960.71
2019-01-26T03:09:08.938Z,960.75
2019-01-26T03:10:08.980Z,960.75
2019-01-26T03:11:08.921Z,960.68
2019-01-26T03:12:08.916Z,960.76
2019-01-26T03:13:08.894Z,960.74
2019-01-26T03:14:08.886Z,960.78
2019-01-26T03:15:08.883Z,960.68
2019-01-26T03:16:08.902Z,960.69
2019-01-26T03:17:08.853Z,960.60
2019-01-26T03:18:08.851Z,960.61
2019-01-26T03:19:08.835Z,960.62
2019-01-26T03:20:08.830Z,960.61
2019-01-26T03:21:08.828Z,960.58
2019-01-26T03:22:08.848Z,960.62
2019-01-26T03:23:08.786Z,960.68
2019-01-26T03:24:08.779Z,960.61
2019-01-26T03:25:08.797Z,960.55
2019-01-26T03:26:08.758Z,960.59
2019-01-26T03:27:08.748Z,960.57
2019-01-26T03:28:08.773Z,960.52
2019-01-26T03:29:08.719Z,960.52
2019-01-26T03:30:08.713Z,960.49
2019-01-26T03:31:09.015Z,960.46
2019-01-26T03:32:08.699Z,960.48
2019-01-26T03:33:08.684Z,960.47
2019-01-26T03:34:08.672Z,960.48
2019-01-26T03:35:08.685Z,960.48
2019-01-26T03:36:08.658Z,960.55
2019-01-26T03:37:08.638Z,960.56
2019-01-26T03:38:08.627Z,960.57
2019-01-26T03:39:08.629Z,960.53
2019-01-26T03:40:08.605Z,960.49
2019-01-26T03:41:08.661Z,960.50
2019-01-26T03:42:09.583Z,960.44
2019-01-26T03:43:08.570Z,960.44
2019-01-26T03:44:08.561Z,960.50
2019-01-26T03:45:08.546Z,960.50
2019-01-26T03:46:08.551Z,960.49
2019-01-26T03:47:13.652Z,960.46
2019-01-26T03:48:09.627Z,960.40
2019-01-26T03:49:08.504Z,960.42
2019-01-26T03:50:08.494Z,960.50
2019-01-26T03:51:08.481Z,960.47
2019-01-26T03:52:08.492Z,960.56
2019-01-26T03:53:08.467Z,960.42
2019-01-26T03:54:08.476Z,960.37
2019-01-26T03:55:08.447Z,960.32
2019-01-26T03:56:08.429Z,960.31
2019-01-26T03:57:08.439Z,960.25
2019-01-26T03:58:08.412Z,960.29
2019-01-26T03:59:08.395Z,960.28
2019-01-26T04:00:08.428Z,960.23
2019-01-26T04:01:08.387Z,960.22
2019-01-26T04:02:08.370Z,960.16
2019-01-26T04:03:08.361Z,960.22
2019-01-26T04:04:08.345Z,960.16
2019-01-26T04:05:08.333Z,960.18
2019-01-26T04:06:08.368Z,960.12
2019-01-26T04:07:08.319Z,960.08
2019-01-26T04:08:08.323Z,960.13
2019-01-26T04:09:08.288Z,960.12
2019-01-26T04:10:08.281Z,960.07
2019-01-26T04:11:08.269Z,960.12
2019-01-26T04:12:08.290Z,960.10
2019-01-26T04:13:08.270Z,960.06
2019-01-26T04:14:08.234Z,960.07
2019-01-26T04:15:08.224Z,960.03
2019-01-26T04:16:08.221Z,960.08
2019-01-26T04:17:08.206Z,960.13
2019-01-26T04:18:08.220Z,960.10
2019-01-26T04:19:08.204Z,960.13
2019-01-26T04:20:08.168Z,960.09
2019-01-26T04:21:08.157Z,960.04
2019-01-26T04:22:08.148Z,960.03
2019-01-26T04:23:08.204Z,960.08
2019-01-26T04:24:08.161Z,960.03
2019-01-26T04:25:08.113Z,960.11
2019-01-26T04:26:08.100Z,960.08
2019-01-26T04:27:08.125Z,960.07
2019-01-26T04:28:08.078Z,960.00
2019-01-26T04:29:08.105Z,960.08
2019-01-26T04:30:08.103Z,960.04
2019-01-26T04:31:08.048Z,959.94
2019-01-26T04:32:08.034Z,960.01
2019-01-26T04:33:08.027Z,959.83
2019-01-26T04:34:08.014Z,959.86
2019-01-26T04:35:08.056Z,959.81
2019-01-26T04:36:08.001Z,959.83
2019-01-26T04:37:07.989Z,959.88
2019-01-26T04:38:07.977Z,959.89
2019-01-26T04:39:07.965Z,959.87
2019-01-26T04:40:07.955Z,959.93
2019-01-26T04:41:07.966Z,959.92
2019-01-26T04:42:07.932Z,959.97
2019-01-26T04:43:07.928Z,959.94
2019-01-26T04:44:07.921Z,959.86
2019-01-26T04:45:07.924Z,959.88
2019-01-26T04:46:07.900Z,959.95
2019-01-26T04:47:07.913Z,959.90
2019-01-26T04:48:07.862Z,959.83
2019-01-26T04:49:07.858Z,959.91
2019-01-26T04:50:07.861Z,959.84
2019-01-26T04:51:07.829Z,959.83
2019-01-26T04:52:07.817Z,959.77
2019-01-26T04:53:07.839Z,959.84
2019-01-26T04:54:07.799Z,959.77
2019-01-26T04:55:07.793Z,959.82
2019-01-26T04:56:07.819Z,959.76
2019-01-26T04:57:07.766Z,959.73
2019-01-26T04:58:07.754Z,959.78
2019-01-26T04:59:07.786Z,959.81
2019-01-26T05:00:07.736Z,959.80
2019-01-26T05:01:07.731Z,959.93
2019-01-26T05:02:07.718Z,959.72
2019-01-26T05:03:07.712Z,959.79
2019-01-26T05:04:07.708Z,959.85
2019-01-26T05:05:07.709Z,959.74
2019-01-26T05:06:07.683Z,959.68
2019-01-26T05:07:07.662Z,959.71
2019-01-26T05:08:07.647Z,959.75
2019-01-26T05:09:07.643Z,959.75
2019-01-26T05:10:07.632Z,959.64
2019-01-26T05:11:07.638Z,959.71
2019-01-26T05:12:07.614Z,959.51
2019-01-26T05:13:07.591Z,959.60
2019-01-26T05:14:07.582Z,959.65
2019-01-26T05:15:07.572Z,959.57
2019-01-26T05:16:07.560Z,959.63
2019-01-26T05:17:07.587Z,959.59
2019-01-26T05:18:07.563Z,959.55
2019-01-26T05:19:07.532Z,959.57
2019-01-26T05:20:07.533Z,959.59
2019-01-26T05:21:07.502Z,959.58
2019-01-26T05:22:07.520Z,959.61
2019-01-26T05:23:07.522Z,959.57
2019-01-26T05:24:07.473Z,959.61
2019-01-26T05:25:07.460Z,959.67
2019-01-26T05:26:07.454Z,959.66
2019-01-26T05:27:07.451Z,959.70
2019-01-26T05:28:07.466Z,959.67
2019-01-26T05:29:07.418Z,959.69
2019-01-26T05:30:07.431Z,959.62
2019-01-26T05:31:07.421Z,959.56
2019-01-26T05:32:07.384Z,959.65
2019-01-26T05:33:07.393Z,959.63
2019-01-26T05:34:07.399Z,959.72
2019-01-26T05:35:07.354Z,959.68
2019-01-26T05:36:07.340Z,959.67
2019-01-26T05:37:07.356Z,959.63
2019-01-26T05:38:07.335Z,959.67
2019-01-26T05:39:07.308Z,959.62
2019-01-26T05:40:07.297Z,959.70
2019-01-26T05:41:07.292Z,959.59
2019-01-26T05:42:07.345Z,959.68
2019-01-26T05:43:07.287Z,959.67
2019-01-26T05:44:07.255Z,959.65
2019-01-26T05:45:07.244Z,959.59
2019-01-26T05:46:07.231Z,959.63
2019-01-26T05:47:07.222Z,959.55
2019-01-26T05:48:07.226Z,959.57
2019-01-26T05:49:07.203Z,959.48
2019-01-26T05:50:07.189Z,959.56
2019-01-26T05:51:07.177Z,959.60
2019-01-26T05:52:07.173Z,959.50
2019-01-26T05:53:07.158Z,959.54
2019-01-26T05:54:07.178Z,959.64
2019-01-26T05:55:07.144Z,959.52
2019-01-26T05:56:07.124Z,959.49
2019-01-26T05:57:07.112Z,959.49
2019-01-26T05:58:07.104Z,959.41
2019-01-26T05:59:07.114Z,959.31
2019-01-26T06:00:07.092Z,959.36
2019-01-26T06:01:07.085Z,959.30
2019-01-26T06:02:07.069Z,959.39
2019-01-26T06:03:07.073Z,959.38
2019-01-26T06:04:07.052Z,959.38
2019-01-26T06:05:07.046Z,959.32
2019-01-26T06:06:07.019Z,959.35
2019-01-26T06:07:07.004Z,959.34
2019-01-26T06:08:07.010Z,959.35
2019-01-26T06:09:06.992Z,959.35
2019-01-26T06:10:06.971Z,959.32
2019-01-26T06:11:06.965Z,959.38
2019-01-26T06:12:06.952Z,959.30
2019-01-26T06:13:06.956Z,959.28
2019-01-26T06:14:06.935Z,959.32
2019-01-26T06:15:06.923Z,959.32
2019-01-26T06:16:06.909Z,959.38
2019-01-26T06:17:06.898Z,959.33
2019-01-26T06:18:06.887Z,959.26
2019-01-26T06:19:06.921Z,959.32
2019-01-26T06:20:06.863Z,959.36
2019-01-26T06:21:06.858Z,959.27
2019-01-26T06:22:06.849Z,959.34
2019-01-26T06:23:06.833Z,959.30
2019-01-26T06:24:06.822Z,959.34
2019-01-26T06:25:06.893Z,959.30
2019-01-26T06:26:06.822Z,959.29
2019-01-26T06:27:06.793Z,959.39
2019-01-26T06:28:06.802Z,959.36
2019-01-26T06:29:06.789Z,959.33
2019-01-26T06:30:06.768Z,959.34
2019-01-26T06:31:06.762Z,959.29
2019-01-26T06:32:06.737Z,959.34
2019-01-26T06:33:06.732Z,959.36
2019-01-26T06:34:06.839Z,959.33
2019-01-26T06:35:06.730Z,959.30
2019-01-26T06:36:06.697Z,959.39
2019-01-26T06:37:06.705Z,959.40
2019-01-26T06:38:06.696Z,959.40
2019-01-26T06:39:06.664Z,959.41
2019-01-26T06:40:06.685Z,959.43
2019-01-26T06:41:06.644Z,959.51
2019-01-26T06:42:06.632Z,959.53
2019-01-26T06:43:06.629Z,959.46
2019-01-26T06:44:06.613Z,959.44
2019-01-26T06:45:06.601Z,959.49
2019-01-26T06:46:06.591Z,959.52
2019-01-26T06:47:06.624Z,959.51
2019-01-26T06:48:06.572Z,959.51
2019-01-26T06:49:06.634Z,959.53
2019-01-26T06:50:06.566Z,959.51
2019-01-26T06:51:06.553Z,959.52
2019-01-26T06:52:06.519Z,959.48
2019-01-26T06:53:06.518Z,959.44
2019-01-26T06:54:06.497Z,959.51
2019-01-26T06:55:06.543Z,959.48
2019-01-26T06:56:06.473Z,959.50
2019-01-26T06:57:06.507Z,959.43
2019-01-26T06:58:06.458Z,959.47
2019-01-26T06:59:06.536Z,959.48
2019-01-26T07:00:06.462Z,959.40
2019-01-26T07:01:06.427Z,959.40
2019-01-26T07:02:06.471Z,959.32
2019-01-26T07:03:06.404Z,959.44
2019-01-26T07:04:06.393Z,959.43
2019-01-26T07:05:06.407Z,959.33
2019-01-26T07:06:06.384Z,959.38
2019-01-26T07:07:06.379Z,959.38
2019-01-26T07:08:06.348Z,959.31
2019-01-26T07:09:06.336Z,959.35
2019-01-26T07:10:06.370Z,959.41
2019-01-26T07:11:06.330Z,959.40
2019-01-26T07:12:06.304Z,959.44
2019-01-26T07:13:06.288Z,959.50
2019-01-26T07:14:06.281Z,959.46
2019-01-26T07:15:06.275Z,959.46
2019-01-26T07:16:06.267Z,959.52
2019-01-26T07:17:06.271Z,959.44
2019-01-26T07:18:09.483Z,959.49
2019-01-26T07:19:06.231Z,959.57
2019-01-26T07:20:06.220Z,959.52
2019-01-26T07:21:06.245Z,959.50
2019-01-26T07:22:06.206Z,959.54
2019-01-26T07:23:06.182Z,959.52
2019-01-26T07:24:06.171Z,959.47
2019-01-26T07:25:06.156Z,959.44
2019-01-26T07:26:06.150Z,959.48
2019-01-26T07:27:06.193Z,959.55
2019-01-26T07:28:06.125Z,959.48
2019-01-26T07:29:06.126Z,959.40
2019-01-26T07:30:06.152Z,959.48
2019-01-26T07:31:06.690Z,959.46
2019-01-26T07:32:06.097Z,959.37
2019-01-26T07:33:06.104Z,959.45
2019-01-26T07:34:06.060Z,959.47
2019-01-26T07:35:06.048Z,959.44
2019-01-26T07:36:06.038Z,959.48
2019-01-26T07:37:06.049Z,959.52
2019-01-26T07:38:06.053Z,959.51
2019-01-26T07:39:06.005Z,959.45
2019-01-26T07:40:05.998Z,959.45
2019-01-26T07:41:05.988Z,959.42
2019-01-26T07:42:05.987Z,959.41
2019-01-26T07:43:05.962Z,959.41
2019-01-26T07:44:05.992Z,959.41
2019-01-26T07:45:05.945Z,959.40
2019-01-26T07:46:05.929Z,959.41
2019-01-26T07:47:05.921Z,959.45
2019-01-26T07:48:05.912Z,959.43
2019-01-26T07:49:05.909Z,959.40
2019-01-26T07:50:05.917Z,959.46
2019-01-26T07:51:05.871Z,959.46
2019-01-26T07:52:05.867Z,959.47
2019-01-26T07:53:05.858Z,959.45
2019-01-26T07:54:05.878Z,959.51
2019-01-26T07:55:05.833Z,959.44
2019-01-26T07:56:05.853Z,959.48
2019-01-26T07:57:05.814Z,959.42
2019-01-26T07:58:05.801Z,959.47
2019-01-26T07:59:05.792Z,959.51
2019-01-26T08:00:05.780Z,959.46
2019-01-26T08:01:05.766Z,959.39
2019-01-26T08:02:05.756Z,959.48
2019-01-26T08:03:05.770Z,959.42
2019-01-26T08:04:05.732Z,959.52
2019-01-26T08:05:05.722Z,959.38
2019-01-26T08:06:05.717Z,959.39
2019-01-26T08:07:05.699Z,959.38
2019-01-26T08:08:05.701Z,959.39
2019-01-26T08:09:05.728Z,959.46
2019-01-26T08:10:05.665Z,959.45
2019-01-26T08:11:05.655Z,959.36
2019-01-26T08:12:05.646Z,959.32
2019-01-26T08:13:05.648Z,959.30
2019-01-26T08:14:05.634Z,959.37
2019-01-26T08:15:05.650Z,959.35
2019-01-26T08:16:05.606Z,959.42
2019-01-26T08:17:05.589Z,959.41
2019-01-26T08:18:05.586Z,959.32
2019-01-26T08:19:05.577Z,959.34
2019-01-26T08:20:05.558Z,959.38
2019-01-26T08:21:05.583Z,959.48
2019-01-26T08:22:05.539Z,959.43
2019-01-26T08:23:05.526Z,959.47
2019-01-26T08:24:05.535Z,959.44
2019-01-26T08:25:05.504Z,959.46
2019-01-26T08:26:05.492Z,959.53
2019-01-26T08:27:05.514Z,959.54
2019-01-26T08:28:05.475Z,959.50
2019-01-26T08:29:05.473Z,959.51
2019-01-26T08:30:05.458Z,959.51
2019-01-26T08:31:05.437Z,959.52
2019-01-26T08:32:05.426Z,959.55
2019-01-26T08:33:05.440Z,959.45
2019-01-26T08:34:05.402Z,959.51
2019-01-26T08:35:05.400Z,959.48
2019-01-26T08:36:05.379Z,959.45
2019-01-26T08:37:05.381Z,959.34
2019-01-26T08:38:05.411Z,959.36
2019-01-26T08:39:05.378Z,959.38
2019-01-26T08:40:05.340Z,959.41
2019-01-26T08:41:05.327Z,959.49
2019-01-26T08:42:05.318Z,959.41
2019-01-26T08:43:05.305Z,959.45
2019-01-26T08:44:05.308Z,959.46
2019-01-26T08:45:05.308Z,959.46
2019-01-26T08:46:05.279Z,959.61
2019-01-26T08:47:05.271Z,959.50
2019-01-26T08:48:05.281Z,959.51
2019-01-26T08:49:05.259Z,959.49
2019-01-26T08:50:05.246Z,959.56
2019-01-26T08:51:05.259Z,959.50
2019-01-26T08:52:05.220Z,959.49
2019-01-26T08:53:05.209Z,959.47
2019-01-26T08:54:05.259Z,959.53
2019-01-26T08:55:05.182Z,959.47
2019-01-26T08:56:05.189Z,959.46
2019-01-26T08:57:05.161Z,959.44
2019-01-26T08:58:05.151Z,959.45
2019-01-26T08:59:05.153Z,959.43
2019-01-26T09:00:05.148Z,959.45
2019-01-26T09:01:05.116Z,959.40
2019-01-26T09:02:05.106Z,959.47
2019-01-26T09:03:05.106Z,959.39
2019-01-26T09:04:05.092Z,959.51
2019-01-26T09:05:05.087Z,959.40
2019-01-26T09:06:05.071Z,959.48
2019-01-26T09:07:05.071Z,959.47
2019-01-26T09:08:05.065Z,959.46
2019-01-26T09:09:05.057Z,959.41
2019-01-26T09:10:05.055Z,959.41
2019-01-26T09:11:05.057Z,959.48
2019-01-26T09:12:04.989Z,959.38
2019-01-26T09:13:04.987Z,959.44
2019-01-26T09:14:05.003Z,959.47
2019-01-26T09:15:04.978Z,959.46
2019-01-26T09:16:04.970Z,959.35
2019-01-26T09:17:04.947Z,959.35
2019-01-26T09:18:04.958Z,959.41
2019-01-26T09:19:04.947Z,959.41
2019-01-26T09:20:04.957Z,959.38
2019-01-26T09:21:04.931Z,959.34
2019-01-26T09:22:04.937Z,959.39
2019-01-26T09:23:04.893Z,959.39
2019-01-26T09:24:04.901Z,959.36
2019-01-26T09:25:04.896Z,959.33
2019-01-26T09:26:04.876Z,959.37
2019-01-26T09:27:04.828Z,959.43
2019-01-26T09:28:04.810Z,959.37
2019-01-26T09:29:04.813Z,959.45
2019-01-26T09:30:04.800Z,959.44
2019-01-26T09:31:04.782Z,959.38
2019-01-26T09:32:04.795Z,959.43
2019-01-26T09:33:04.764Z,959.37
2019-01-26T09:34:04.755Z,959.45
2019-01-26T09:35:04.764Z,959.48
2019-01-26T09:36:04.738Z,959.43
2019-01-26T09:37:04.741Z,959.50
2019-01-26T09:38:04.767Z,959.35
2019-01-26T09:39:04.727Z,959.41
2019-01-26T09:40:04.711Z,959.50
2019-01-26T09:41:04.682Z,959.41
2019-01-26T09:42:04.684Z,959.46
2019-01-26T09:43:04.687Z,959.44
2019-01-26T09:44:04.681Z,959.43
2019-01-26T09:45:04.677Z,959.44
2019-01-26T09:46:04.616Z,959.43
2019-01-26T09:47:04.652Z,959.45
2019-01-26T09:48:04.619Z,959.45
2019-01-26T09:49:04.619Z,959.44
2019-01-26T09:50:04.618Z,959.41
2019-01-26T09:51:04.575Z,959.48
2019-01-26T09:52:04.594Z,959.54
2019-01-26T09:53:04.573Z,959.46
2019-01-26T09:54:04.531Z,959.48
2019-01-26T09:55:04.566Z,959.39
2019-01-26T09:56:04.524Z,959.47
2019-01-26T09:57:04.515Z,959.39
2019-01-26T09:58:04.506Z,959.53
2019-01-26T09:59:04.486Z,959.36
2019-01-26T10:00:04.469Z,959.39
2019-01-26T10:01:04.460Z,959.43
2019-01-26T10:02:04.454Z,959.44
2019-01-26T10:03:04.462Z,959.49
2019-01-26T10:04:04.441Z,959.49
2019-01-26T10:05:04.436Z,959.50
2019-01-26T10:06:04.426Z,959.45
2019-01-26T10:07:04.421Z,959.48
2019-01-26T10:08:04.380Z,959.41
2019-01-26T10:09:04.412Z,959.53
2019-01-26T10:10:04.377Z,959.47
2019-01-26T10:11:04.385Z,959.43
2019-01-26T10:12:04.341Z,959.38
2019-01-26T10:13:04.418Z,959.42
2019-01-26T10:14:04.344Z,959.37
2019-01-26T10:15:04.367Z,959.41
2019-01-26T10:16:04.309Z,959.34
2019-01-26T10:17:04.299Z,959.36
2019-01-26T10:18:04.262Z,959.22
2019-01-26T10:19:04.259Z,959.25
2019-01-26T10:20:04.244Z,959.24
2019-01-26T10:21:04.236Z,959.17
2019-01-26T10:22:04.247Z,959.28
2019-01-26T10:23:04.211Z,959.23
2019-01-26T10:24:04.196Z,959.29
2019-01-26T10:25:04.189Z,959.21
2019-01-26T10:26:04.188Z,959.23
2019-01-26T10:27:04.182Z,959.20
2019-01-26T10:28:04.171Z,959.26
2019-01-26T10:29:04.140Z,959.22
2019-01-26T10:30:05.024Z,959.13
2019-01-26T10:31:04.127Z,959.14
2019-01-26T10:32:04.108Z,959.19
2019-01-26T10:33:04.105Z,959.28
2019-01-26T10:34:04.120Z,959.19
2019-01-26T10:35:04.087Z,959.16
2019-01-26T10:36:04.067Z,959.20
2019-01-26T10:37:04.052Z,959.24
2019-01-26T10:38:04.049Z,959.19
2019-01-26T10:39:04.036Z,959.16
2019-01-26T10:40:04.038Z,959.14
2019-01-26T10:41:04.027Z,959.19
2019-01-26T10:42:04.000Z,959.12
2019-01-26T10:43:03.991Z,959.08
2019-01-26T10:44:03.988Z,959.15
2019-01-26T10:45:03.968Z,959.10
2019-01-26T10:46:03.991Z,959.16
2019-01-26T10:47:03.981Z,959.11
2019-01-26T10:48:03.945Z,959.05
2019-01-26T10:49:03.932Z,959.10
2019-01-26T10:50:03.923Z,959.08
2019-01-26T10:51:03.915Z,959.04
2019-01-26T10:52:03.934Z,959.16
2019-01-26T10:53:03.899Z,959.13
2019-01-26T10:54:03.866Z,959.13
2019-01-26T10:55:03.856Z,959.18
2019-01-26T10:56:03.856Z,959.14
2019-01-26T10:57:03.849Z,959.19
2019-01-26T10:58:03.831Z,959.11
2019-01-26T10:59:03.833Z,959.14
2019-01-26T11:00:03.815Z,959.14
2019-01-26T11:01:03.800Z,959.15
2019-01-26T11:02:03.851Z,959.13
2019-01-26T11:03:03.787Z,959.14
2019-01-26T11:04:03.755Z,959.15
2019-01-26T11:05:03.779Z,959.16
2019-01-26T11:06:03.746Z,959.18
2019-01-26T11:07:03.727Z,959.12
2019-01-26T11:08:03.726Z,959.12
2019-01-26T11:09:03.746Z,959.04
2019-01-26T11:10:03.695Z,959.06
2019-01-26T11:11:03.699Z,959.07
2019-01-26T11:12:03.683Z,959.04
2019-01-26T11:13:03.659Z,958.99
2019-01-26T11:14:03.648Z,958.99
2019-01-26T11:15:03.651Z,959.01
2019-01-26T11:16:03.675Z,958.96
2019-01-26T11:17:03.631Z,958.96
2019-01-26T11:18:03.619Z,958.89
2019-01-26T11:19:07.827Z,958.88
2019-01-26T11:20:03.615Z,958.91
2019-01-26T11:21:03.573Z,958.92
2019-01-26T11:22:03.571Z,958.87
2019-01-26T11:23:03.565Z,958.93
2019-01-26T11:24:03.547Z,958.87
2019-01-26T11:25:03.558Z,958.94
2019-01-26T11:26:03.520Z,958.93
2019-01-26T11:27:03.536Z,958.87
2019-01-26T11:28:03.491Z,958.78
2019-01-26T11:29:03.486Z,958.87
2019-01-26T11:30:03.472Z,958.89
2019-01-26T11:31:03.463Z,958.84
2019-01-26T11:32:03.467Z,958.87
2019-01-26T11:33:03.494Z,958.84
2019-01-26T11:34:03.428Z,958.78
2019-01-26T11:35:03.425Z,958.79
2019-01-26T11:36:03.498Z,958.75
2019-01-26T11:37:03.413Z,958.74
2019-01-26T11:38:03.389Z,958.73
2019-01-26T11:39:03.386Z,958.65
2019-01-26T11:40:03.356Z,958.66
2019-01-26T11:41:03.406Z,958.71
2019-01-26T11:42:03.346Z,958.62
2019-01-26T11:43:03.344Z,958.70
2019-01-26T11:44:03.312Z,958.72
2019-01-26T11:45:03.306Z,958.64
2019-01-26T11:46:03.316Z,958.65
2019-01-26T11:47:03.304Z,958.59
2019-01-26T11:48:03.284Z,958.60
2019-01-26T11:49:03.272Z,958.62
2019-01-26T11:50:03.246Z,958.57
2019-01-26T11:51:03.265Z,958.51
2019-01-26T11:52:03.226Z,958.52
2019-01-26T11:53:03.213Z,958.57
2019-01-26T11:54:03.204Z,958.59
2019-01-26T11:55:03.215Z,958.52
2019-01-26T11:56:03.198Z,958.54
2019-01-26T11:57:03.172Z,958.45
2019-01-26T11:58:03.162Z,958.42
2019-01-26T11:59:03.145Z,958.42
2019-01-26T12:00:03.147Z,958.37
2019-01-26T12:01:03.128Z,958.40
2019-01-26T12:02:03.120Z,958.36
2019-01-26T12:03:03.675Z,958.34
2019-01-26T12:04:03.120Z,958.35
2019-01-26T12:05:03.093Z,958.35
2019-01-26T12:06:03.071Z,958.34
2019-01-26T12:07:03.092Z,958.22
2019-01-26T12:08:03.055Z,958.26
2019-01-26T12:09:03.043Z,958.10
2019-01-26T12:10:03.041Z,958.13
2019-01-26T12:11:03.036Z,958.14
2019-01-26T12:12:03.037Z,958.08
2019-01-26T12:13:03.012Z,958.06
2019-01-26T12:14:02.991Z,958.11
2019-01-26T12:15:03.015Z,958.08
2019-01-26T12:16:02.961Z,958.09
2019-01-26T12:17:02.981Z,958.02
2019-01-26T12:18:02.942Z,958.08
2019-01-26T12:19:02.942Z,958.07
2019-01-26T12:20:02.914Z,958.09
2019-01-26T12:21:02.913Z,958.10
2019-01-26T12:22:02.931Z,958.11
2019-01-26T12:23:02.929Z,958.07
2019-01-26T12:24:02.870Z,958.07
2019-01-26T12:25:02.863Z,957.96
2019-01-26T12:26:02.874Z,958.01
2019-01-26T12:27:02.871Z,958.01
2019-01-26T12:28:02.831Z,958.00